Time;durP1;ratioP1;P1;durP2;ratioP2;P2;SDS_P1;SDS_P2;PMS_P1;PMS_P2;Temp;Humidity;BMP_temperature;BMP_pressure;BME280_temperature;BME280_humidity;BME280_pressure;Samples;Min_cycle;Max_cycle;Signal;HPM_P1;HPM_P2
2022/01/23 00:01:48;;;;;;;7.30;5.65;;;;;;;;;;5063338;28;20649;-72
2022/01/23 00:04:15;;;;;;;8.05;6.32;;;;;;;;;;5065442;28;20194;-73
2022/01/23 00:06:45;;;;;;;9.07;6.80;;;;;;;;;;5068967;28;20240;-72
2022/01/23 00:09:14;;;;;;;6.95;6.10;;;;;;;;;;5064948;28;20640;-72
2022/01/23 00:11:47;;;;;;;9.35;7.25;;;;;;;;;;5062473;28;20719;-72
2022/01/23 00:19:43;;;;;;;10.50;6.38;;;;;;;;;;5069455;28;20656;-73
2022/01/23 00:22:11;;;;;;;8.10;6.78;;;;;;;;;;5067741;28;20199;-72
2022/01/23 00:30:26;;;;;;;7.13;5.65;;;;;;;;;;5058562;28;20727;-73
2022/01/23 00:32:54;;;;;;;7.65;6.95;;;;;;;;;;5070179;28;20210;-73
2022/01/23 00:35:21;;;;;;;6.35;5.63;;;;;;;;;;5065810;28;20195;-72
2022/01/23 00:37:48;;;;;;;7.28;6.53;;;;;;;;;;5066100;28;20239;-72
2022/01/23 00:40:16;;;;;;;6.50;5.60;;;;;;;;;;5063310;28;20195;-72
2022/01/23 00:42:43;;;;;;;11.27;6.38;;;;;;;;;;5059962;28;20616;-71
2022/01/23 00:47:54;;;;;;;7.10;5.95;;;;;;;;;;5049960;28;20581;-72
2022/01/23 00:50:22;;;;;;;6.72;5.78;;;;;;;;;;5057646;28;20197;-72
2022/01/23 00:52:49;;;;;;;8.20;6.20;;;;;;;;;;5058503;28;20198;-71
2022/01/23 00:55:17;;;;;;;7.03;6.20;;;;;;;;;;5063355;28;20680;-71
2022/01/23 00:57:44;;;;;;;7.40;5.72;;;;;;;;;;5055692;28;20272;-72
2022/01/23 01:00:12;;;;;;;7.13;5.65;;;;;;;;;;5061757;28;20609;-71
2022/01/23 01:02:39;;;;;;;7.50;6.40;;;;;;;;;;5060816;28;21952;-72
2022/01/23 01:05:06;;;;;;;6.60;6.00;;;;;;;;;;5069150;28;20252;-71
2022/01/23 01:07:33;;;;;;;6.65;5.95;;;;;;;;;;5058656;28;20240;-72
2022/01/23 01:10:07;;;;;;;6.28;5.68;;;;;;;;;;5067020;28;20195;-72
2022/01/23 01:12:39;;;;;;;7.25;5.35;;;;;;;;;;5065014;28;20201;-71
2022/01/23 01:15:29;;;;;;;6.63;5.32;;;;;;;;;;5068430;28;20646;-72
2022/01/23 01:31:50;;;;;;;7.30;5.25;;;;;;;;;;5065523;28;20694;-72
2022/01/23 01:34:22;;;;;;;6.35;4.95;;;;;;;;;;5069566;28;20200;-72
2022/01/23 01:36:52;;;;;;;6.85;6.13;;;;;;;;;;5062437;28;20236;-70
2022/01/23 01:39:20;;;;;;;7.05;5.60;;;;;;;;;;5062194;28;20248;-71
2022/01/23 01:41:48;;;;;;;7.32;5.00;;;;;;;;;;5064249;28;20194;-72
2022/01/23 01:44:17;;;;;;;5.25;4.25;;;;;;;;;;5070302;28;20198;-71
2022/01/23 01:46:44;;;;;;;5.00;3.95;;;;;;;;;;5061623;28;20343;-72
2022/01/23 01:49:11;;;;;;;7.00;4.82;;;;;;;;;;5064743;28;20805;-72
2022/01/23 01:51:38;;;;;;;6.60;5.90;;;;;;;;;;5063596;28;20686;-71
2022/01/23 01:54:11;;;;;;;6.65;5.00;;;;;;;;;;5060362;28;20199;-71
2022/01/23 01:56:47;;;;;;;8.55;5.45;;;;;;;;;;5067010;28;20581;-71
2022/01/23 01:59:33;;;;;;;6.60;5.03;;;;;;;;;;5073227;28;20224;-71
2022/01/23 02:10:17;;;;;;;4.15;3.75;;;;;;;;;;5061113;28;20565;-71
2022/01/23 02:13:07;;;;;;;6.25;4.97;;;;;;;;;;5067262;28;20268;-71
2022/01/23 02:18:30;;;;;;;3.78;3.42;;;;;;;;;;5062500;28;20729;-72
2022/01/23 02:24:03;;;;;;;5.95;4.70;;;;;;;;;;5072804;28;20711;-71
2022/01/23 02:51:33;;;;;;;8.32;6.30;;;;;;;;;;5054732;28;20194;-71
2022/01/23 02:54:21;;;;;;;8.32;6.05;;;;;;;;;;5066093;28;20193;-71
2022/01/23 02:56:51;;;;;;;6.97;5.72;;;;;;;;;;5057561;28;20202;-72
2022/01/23 02:59:23;;;;;;;6.22;5.32;;;;;;;;;;5067777;28;20337;-72
2022/01/23 03:02:03;;;;;;;6.85;5.80;;;;;;;;;;5062814;28;20191;-72
2022/01/23 03:04:32;;;;;;;6.88;5.47;;;;;;;;;;5058373;28;20285;-72
2022/01/23 03:07:13;;;;;;;6.93;5.20;;;;;;;;;;5057760;28;20717;-73
2022/01/23 03:09:56;;;;;;;9.23;6.57;;;;;;;;;;5070656;28;20202;-71
2022/01/23 03:15:24;;;;;;;8.68;6.53;;;;;;;;;;5039794;28;20225;-76
2022/01/23 03:26:16;;;;;;;9.10;7.35;;;;;;;;;;5072402;28;20239;-75
2022/01/23 03:31:44;;;;;;;8.20;7.05;;;;;;;;;;5031044;28;20325;-72
2022/01/23 03:34:12;;;;;;;9.95;6.80;;;;;;;;;;5024655;28;20539;-72
2022/01/23 03:36:39;;;;;;;11.77;6.95;;;;;;;;;;5037013;28;20608;-73
2022/01/23 03:39:08;;;;;;;6.85;5.97;;;;;;;;;;5060670;28;20222;-73
2022/01/23 03:41:38;;;;;;;7.75;6.40;;;;;;;;;;5063854;28;20244;-72
2022/01/23 03:44:06;;;;;;;9.68;6.82;;;;;;;;;;5068055;28;20569;-73
2022/01/23 03:46:48;;;;;;;8.07;6.10;;;;;;;;;;5063618;28;20264;-72
2022/01/23 03:49:31;;;;;;;10.20;6.78;;;;;;;;;;5064775;28;20221;-72
2022/01/23 03:51:58;;;;;;;10.70;8.93;;;;;;;;;;5057598;28;20192;-73
2022/01/23 03:54:26;;;;;;;7.25;5.85;;;;;;;;;;5066704;28;20198;-72
2022/01/23 03:56:55;;;;;;;9.60;6.60;;;;;;;;;;5066515;28;20225;-70
2022/01/23 03:59:22;;;;;;;8.48;6.88;;;;;;;;;;5061721;28;20620;-72
2022/01/23 04:01:49;;;;;;;8.80;7.10;;;;;;;;;;5053437;28;20195;-72
2022/01/23 04:04:27;;;;;;;7.88;6.50;;;;;;;;;;5062188;28;20217;-72
2022/01/23 04:06:54;;;;;;;6.63;5.90;;;;;;;;;;5066870;28;20275;-71
2022/01/23 04:09:22;;;;;;;8.10;6.15;;;;;;;;;;5056170;28;20195;-72
2022/01/23 04:11:49;;;;;;;10.90;6.30;;;;;;;;;;5056376;28;20201;-75
2022/01/23 04:14:20;;;;;;;12.27;7.28;;;;;;;;;;5068125;28;20205;-72
2022/01/23 04:17:10;;;;;;;9.75;6.22;;;;;;;;;;5061679;28;20195;-71
2022/01/23 04:19:53;;;;;;;8.63;6.18;;;;;;;;;;5070633;28;20214;-72
2022/01/23 05:01:04;;;;;;;8.45;6.60;;;;;;;;;;5062699;28;20321;-71
2022/01/23 05:06:24;;;;;;;8.50;7.13;;;;;;;;;;5056157;28;20260;-71
2022/01/23 05:08:52;;;;;;;8.10;6.22;;;;;;;;;;5069835;28;20265;-73
2022/01/23 05:11:20;;;;;;;9.15;6.72;;;;;;;;;;5063069;28;20251;-73
2022/01/23 05:13:47;;;;;;;9.77;7.50;;;;;;;;;;5068737;28;20665;-71
2022/01/23 05:16:14;;;;;;;10.18;7.32;;;;;;;;;;5062910;28;20201;-71
2022/01/23 05:18:42;;;;;;;7.95;6.75;;;;;;;;;;5071353;28;20308;-71
2022/01/23 05:21:32;;;;;;;11.30;8.18;;;;;;;;;;5058349;28;20198;-71
2022/01/23 05:24:01;;;;;;;9.27;7.13;;;;;;;;;;5070345;28;20566;-74
2022/01/23 05:26:28;;;;;;;9.82;7.10;;;;;;;;;;5066818;28;20214;-73
2022/01/23 05:28:56;;;;;;;10.27;6.90;;;;;;;;;;5060494;28;20213;-73
2022/01/23 05:31:23;;;;;;;11.30;7.75;;;;;;;;;;5058055;28;20256;-71
2022/01/23 05:33:52;;;;;;;9.32;6.90;;;;;;;;;;5052398;28;20281;-73
2022/01/23 05:36:21;;;;;;;10.90;6.75;;;;;;;;;;5052201;28;20711;-72
2022/01/23 05:38:48;;;;;;;9.18;7.10;;;;;;;;;;5067690;28;20221;-73
2022/01/23 05:41:15;;;;;;;10.90;7.93;;;;;;;;;;5064825;28;20535;-73
2022/01/23 05:43:42;;;;;;;9.10;7.32;;;;;;;;;;5066420;28;20641;-73
2022/01/23 05:46:09;;;;;;;8.57;6.75;;;;;;;;;;5066263;28;20213;-72
2022/01/23 05:48:37;;;;;;;11.52;8.40;;;;;;;;;;5063129;28;20191;-73
2022/01/23 05:51:10;;;;;;;8.88;7.45;;;;;;;;;;5066027;28;20202;-72
2022/01/23 05:53:38;;;;;;;8.77;6.68;;;;;;;;;;5059605;28;20205;-74
2022/01/23 05:56:05;;;;;;;8.38;6.38;;;;;;;;;;5057820;28;20272;-73
2022/01/23 05:58:32;;;;;;;10.75;7.45;;;;;;;;;;5058471;28;20206;-72
2022/01/23 06:00:59;;;;;;;9.02;7.20;;;;;;;;;;5063330;28;20195;-73
2022/01/23 06:03:26;;;;;;;9.52;7.47;;;;;;;;;;5064107;28;20197;-72
2022/01/23 06:05:54;;;;;;;11.40;8.40;;;;;;;;;;5063858;28;20271;-73
2022/01/23 06:08:23;;;;;;;10.05;7.28;;;;;;;;;;5066347;28;20624;-72
2022/01/23 06:10:56;;;;;;;10.20;7.68;;;;;;;;;;5061354;28;20201;-74
2022/01/23 06:13:23;;;;;;;8.77;7.05;;;;;;;;;;5062640;28;20271;-74
2022/01/23 06:15:50;;;;;;;10.10;7.32;;;;;;;;;;5060641;28;20253;-72
2022/01/23 06:18:17;;;;;;;10.93;7.47;;;;;;;;;;5052091;28;20559;-75
2022/01/23 06:20:44;;;;;;;9.27;6.82;;;;;;;;;;5057527;28;20244;-72
2022/01/23 06:23:12;;;;;;;14.00;7.65;;;;;;;;;;5066814;28;20198;-74
2022/01/23 06:25:42;;;;;;;12.38;8.55;;;;;;;;;;5066765;28;20194;-72
2022/01/23 06:28:09;;;;;;;9.30;7.03;;;;;;;;;;5060453;28;20251;-73
2022/01/23 06:30:37;;;;;;;10.43;7.22;;;;;;;;;;5061582;28;20206;-72
2022/01/23 06:33:05;;;;;;;9.25;7.70;;;;;;;;;;5062681;28;20198;-72
2022/01/23 06:35:32;;;;;;;8.93;6.85;;;;;;;;;;5051508;28;20278;-73
2022/01/23 06:37:59;;;;;;;12.85;7.55;;;;;;;;;;5055779;28;20206;-72
2022/01/23 06:40:26;;;;;;;8.82;6.90;;;;;;;;;;5066785;28;20194;-73
2022/01/23 06:42:55;;;;;;;9.63;8.02;;;;;;;;;;5065945;28;20247;-73
2022/01/23 06:45:22;;;;;;;10.98;7.72;;;;;;;;;;5067950;28;20665;-72
2022/01/23 06:47:49;;;;;;;9.93;7.10;;;;;;;;;;5062598;28;20568;-72
2022/01/23 06:50:16;;;;;;;13.68;8.80;;;;;;;;;;5063450;28;20245;-73
2022/01/23 06:52:43;;;;;;;9.15;7.78;;;;;;;;;;5068712;28;20202;-72
2022/01/23 06:55:10;;;;;;;10.90;8.43;;;;;;;;;;5073504;28;20202;-73
2022/01/23 06:57:37;;;;;;;13.15;8.90;;;;;;;;;;5055999;28;20248;-72
2022/01/23 07:00:07;;;;;;;10.45;8.43;;;;;;;;;;5067256;28;20558;-73
2022/01/23 07:02:34;;;;;;;11.38;8.63;;;;;;;;;;5073793;28;20549;-73
2022/01/23 07:05:01;;;;;;;10.23;8.27;;;;;;;;;;5063116;28;20206;-71
2022/01/23 07:07:28;;;;;;;12.38;8.80;;;;;;;;;;5062409;28;20195;-72
2022/01/23 07:09:55;;;;;;;11.07;7.97;;;;;;;;;;5062323;28;20248;-72
2022/01/23 07:12:22;;;;;;;10.60;8.18;;;;;;;;;;5059729;28;20195;-72
2022/01/23 07:14:49;;;;;;;9.18;6.75;;;;;;;;;;5072314;28;20619;-71
2022/01/23 07:17:17;;;;;;;10.25;7.93;;;;;;;;;;5059770;28;20195;-74
2022/01/23 07:19:44;;;;;;;10.45;7.75;;;;;;;;;;5066356;28;20747;-73
2022/01/23 07:22:11;;;;;;;11.10;8.65;;;;;;;;;;5067401;28;20202;-71
2022/01/23 07:24:38;;;;;;;10.27;8.05;;;;;;;;;;5073088;28;20202;-72
2022/01/23 07:27:13;;;;;;;11.88;8.13;;;;;;;;;;5066794;28;20210;-71
2022/01/23 07:29:42;;;;;;;11.25;8.30;;;;;;;;;;5071756;28;20185;-73
2022/01/23 07:32:09;;;;;;;11.48;8.23;;;;;;;;;;5062809;28;20225;-72
2022/01/23 07:34:38;;;;;;;10.23;7.85;;;;;;;;;;5053994;28;20199;-73
2022/01/23 07:37:05;;;;;;;10.23;7.07;;;;;;;;;;5072896;28;20577;-71
2022/01/23 07:39:32;;;;;;;12.55;8.52;;;;;;;;;;5072162;28;20250;-71
2022/01/23 07:41:59;;;;;;;11.25;7.38;;;;;;;;;;5059440;28;20202;-71
2022/01/23 07:44:26;;;;;;;7.90;6.47;;;;;;;;;;5073280;28;20194;-71
2022/01/23 07:46:54;;;;;;;9.85;7.70;;;;;;;;;;5057403;28;20199;-71
2022/01/23 07:49:21;;;;;;;8.68;6.32;;;;;;;;;;5051965;28;20191;-72
2022/01/23 07:51:49;;;;;;;13.68;7.57;;;;;;;;;;5063267;28;20573;-72
2022/01/23 07:54:16;;;;;;;11.98;8.00;;;;;;;;;;5072992;28;20195;-72
2022/01/23 07:56:43;;;;;;;11.95;7.53;;;;;;;;;;5061488;28;20613;-72
2022/01/23 07:59:11;;;;;;;9.38;7.38;;;;;;;;;;5070837;28;20495;-72
2022/01/23 08:01:39;;;;;;;9.57;6.70;;;;;;;;;;5071734;28;20202;-71
2022/01/23 08:04:06;;;;;;;8.48;7.25;;;;;;;;;;5072336;28;20641;-71
2022/01/23 08:06:39;;;;;;;10.98;8.43;;;;;;;;;;5062003;28;20321;-73
2022/01/23 08:09:07;;;;;;;11.75;8.50;;;;;;;;;;5070226;28;20205;-72
2022/01/23 08:11:34;;;;;;;10.90;7.75;;;;;;;;;;5057026;28;20219;-72
2022/01/23 08:14:01;;;;;;;11.15;7.40;;;;;;;;;;5071681;28;20201;-73
2022/01/23 08:16:29;;;;;;;7.78;6.97;;;;;;;;;;5072394;28;20251;-70
2022/01/23 08:18:56;;;;;;;8.73;6.25;;;;;;;;;;5070638;28;20622;-72
2022/01/23 08:21:23;;;;;;;13.10;8.90;;;;;;;;;;5069125;28;20198;-72
2022/01/23 08:23:52;;;;;;;11.13;8.05;;;;;;;;;;5071742;28;20194;-73
2022/01/23 08:26:21;;;;;;;10.80;7.43;;;;;;;;;;5058529;28;20202;-74
2022/01/23 08:28:48;;;;;;;11.85;8.35;;;;;;;;;;5071797;28;20198;-73
2022/01/23 08:31:15;;;;;;;11.70;7.90;;;;;;;;;;5071539;28;20699;-73
2022/01/23 08:33:42;;;;;;;12.23;8.80;;;;;;;;;;5071932;28;20202;-73
2022/01/23 08:36:09;;;;;;;11.43;7.68;;;;;;;;;;5061634;28;20206;-72
2022/01/23 08:38:36;;;;;;;12.05;9.07;;;;;;;;;;5072124;28;20244;-72
2022/01/23 08:43:49;;;;;;;13.93;9.68;;;;;;;;;;5071675;28;20205;-72
2022/01/23 08:46:16;;;;;;;17.55;10.80;;;;;;;;;;5071958;28;20272;-73
2022/01/23 08:48:44;;;;;;;16.40;10.27;;;;;;;;;;5066269;28;20673;-72
2022/01/23 08:51:11;;;;;;;14.85;9.55;;;;;;;;;;5065686;28;20209;-71
2022/01/23 08:53:38;;;;;;;12.63;10.57;;;;;;;;;;5071132;28;20191;-70
2022/01/23 08:56:05;;;;;;;20.17;12.50;;;;;;;;;;5059345;28;20256;-70
2022/01/23 08:58:32;;;;;;;13.85;9.07;;;;;;;;;;5057026;28;20245;-71
2022/01/23 09:01:01;;;;;;;14.43;10.23;;;;;;;;;;5051402;28;20266;-70
2022/01/23 09:03:28;;;;;;;17.42;11.73;;;;;;;;;;5063740;28;20198;-71
2022/01/23 09:05:55;;;;;;;14.35;9.70;;;;;;;;;;5055765;28;20612;-73
2022/01/23 09:08:22;;;;;;;12.70;9.55;;;;;;;;;;5070433;28;20201;-72
2022/01/23 09:10:55;;;;;;;12.70;10.50;;;;;;;;;;5065690;28;20281;-72
2022/01/23 09:13:33;;;;;;;15.27;10.45;;;;;;;;;;5054176;28;20195;-72
2022/01/23 09:16:01;;;;;;;17.75;10.60;;;;;;;;;;5059971;28;20221;-72
2022/01/23 09:18:29;;;;;;;11.77;7.57;;;;;;;;;;5055841;28;20598;-72
2022/01/23 09:20:56;;;;;;;10.75;8.80;;;;;;;;;;5054219;28;20264;-72
2022/01/23 09:23:23;;;;;;;10.73;8.25;;;;;;;;;;5068479;28;20213;-73
2022/01/23 09:25:50;;;;;;;13.50;8.80;;;;;;;;;;5068617;28;20186;-72
2022/01/23 09:28:19;;;;;;;11.35;8.10;;;;;;;;;;5064004;28;20198;-74
2022/01/23 09:30:49;;;;;;;13.10;8.55;;;;;;;;;;5064996;28;20191;-72
2022/01/23 09:33:18;;;;;;;11.20;7.47;;;;;;;;;;5070038;28;20225;-72
2022/01/23 09:35:46;;;;;;;15.00;9.02;;;;;;;;;;5054601;28;20199;-72
2022/01/23 09:38:13;;;;;;;11.15;8.30;;;;;;;;;;5070981;28;20194;-72
2022/01/23 09:40:40;;;;;;;12.73;8.13;;;;;;;;;;5067033;28;20677;-74
2022/01/23 09:43:08;;;;;;;15.82;8.57;;;;;;;;;;5066568;28;20202;-73
2022/01/23 09:45:36;;;;;;;14.32;8.70;;;;;;;;;;5060832;28;20217;-73
2022/01/23 09:48:04;;;;;;;15.10;10.13;;;;;;;;;;5050857;28;20422;-72
2022/01/23 09:50:33;;;;;;;14.35;9.10;;;;;;;;;;5048704;28;20278;-74
2022/01/23 09:53:01;;;;;;;15.23;10.50;;;;;;;;;;5053635;28;20221;-72
2022/01/23 09:55:29;;;;;;;14.25;10.10;;;;;;;;;;5057698;28;20240;-72
2022/01/23 09:57:57;;;;;;;11.45;8.85;;;;;;;;;;5053789;28;20662;-72
2022/01/23 10:00:25;;;;;;;15.93;10.35;;;;;;;;;;5063852;28;20210;-72
2022/01/23 10:02:52;;;;;;;14.70;9.85;;;;;;;;;;5056487;28;20224;-72
2022/01/23 10:05:20;;;;;;;14.07;9.98;;;;;;;;;;5068520;28;20217;-72
2022/01/23 10:07:49;;;;;;;13.55;9.38;;;;;;;;;;5050166;28;20195;-72
2022/01/23 10:10:19;;;;;;;9.82;8.48;;;;;;;;;;5054621;28;20206;-72
2022/01/23 10:12:49;;;;;;;11.75;8.43;;;;;;;;;;5067477;28;20240;-72
2022/01/23 10:15:16;;;;;;;11.98;8.70;;;;;;;;;;5064087;28;20674;-72
2022/01/23 10:17:44;;;;;;;14.52;8.30;;;;;;;;;;5078937;28;20280;-72
2022/01/23 10:20:11;;;;;;;13.18;8.40;;;;;;;;;;5073015;28;20225;-71
2022/01/23 10:22:41;;;;;;;18.27;9.70;;;;;;;;;;5080117;28;20656;-70
2022/01/23 10:25:11;;;;;;;12.80;8.07;;;;;;;;;;5068408;28;20292;-71
2022/01/23 10:27:53;;;;;;;12.60;8.25;;;;;;;;;;5071122;28;20200;-72
2022/01/23 10:30:22;;;;;;;10.85;7.47;;;;;;;;;;5063111;28;20272;-71
2022/01/23 10:32:59;;;;;;;12.00;8.15;;;;;;;;;;5062657;28;20206;-70
2022/01/23 10:35:27;;;;;;;12.20;7.63;;;;;;;;;;5061907;28;20289;-71
2022/01/23 10:37:55;;;;;;;9.90;7.32;;;;;;;;;;5056203;28;20245;-71
2022/01/23 10:40:30;;;;;;;13.55;8.45;;;;;;;;;;5068788;28;20214;-73
2022/01/23 10:46:37;;;;;;;8.60;7.05;;;;;;;;;;5060270;28;20657;-71
2022/01/23 10:48:41;;;;;;;9.30;7.03;;;;;;;;;;5069780;28;20196;-71
2022/01/23 10:51:22;;;;;;;9.77;7.05;;;;;;;;;;5054463;28;20724;-73
2022/01/23 10:54:03;;;;;;;10.07;6.70;;;;;;;;;;5055232;28;20194;-71
2022/01/23 10:56:33;;;;;;;9.82;7.85;;;;;;;;;;5062134;28;20202;-71
2022/01/23 10:59:01;;;;;;;8.50;7.03;;;;;;;;;;5060960;28;20202;-71
2022/01/23 11:01:29;;;;;;;7.65;5.53;;;;;;;;;;5068408;28;20268;-72
2022/01/23 11:04:10;;;;;;;10.43;7.40;;;;;;;;;;5070209;28;20198;-71
2022/01/23 11:06:54;;;;;;;9.77;6.65;;;;;;;;;;5054249;28;20554;-72
2022/01/23 11:09:21;;;;;;;8.57;6.50;;;;;;;;;;5068582;28;20603;-74
2022/01/23 11:11:52;;;;;;;9.75;6.88;;;;;;;;;;5065921;28;20199;-73
2022/01/23 11:17:24;;;;;;;7.35;6.10;;;;;;;;;;5063568;28;20263;-74
2022/01/23 11:19:52;;;;;;;8.90;6.60;;;;;;;;;;5057366;28;20214;-73
2022/01/23 11:22:19;;;;;;;7.90;5.88;;;;;;;;;;5066788;28;20251;-73
2022/01/23 11:24:47;;;;;;;8.50;5.55;;;;;;;;;;5071888;28;20198;-71
2022/01/23 11:27:16;;;;;;;6.40;5.25;;;;;;;;;;5068363;28;20206;-71
2022/01/23 11:29:54;;;;;;;8.40;6.53;;;;;;;;;;5071726;28;20454;-72
2022/01/23 11:32:22;;;;;;;6.10;5.43;;;;;;;;;;5053438;28;20240;-73
2022/01/23 11:34:49;;;;;;;6.85;5.60;;;;;;;;;;5053681;28;20198;-73
2022/01/23 11:37:17;;;;;;;8.73;6.50;;;;;;;;;;5064744;28;20210;-73
2022/01/23 11:39:49;;;;;;;7.40;4.80;;;;;;;;;;5062714;28;20198;-73
2022/01/23 11:53:48;;;;;;;8.18;6.07;;;;;;;;;;5023375;28;20202;-74
2022/01/23 11:56:36;;;;;;;11.30;6.13;;;;;;;;;;5050574;28;20597;-75
2022/01/23 11:59:17;;;;;;;8.38;4.50;;;;;;;;;;5053293;28;20202;-73
2022/01/23 12:01:45;;;;;;;8.30;6.35;;;;;;;;;;5066881;28;20699;-73
2022/01/23 12:04:17;;;;;;;7.90;5.70;;;;;;;;;;5065957;28;20206;-73
2022/01/23 12:06:46;;;;;;;6.03;5.43;;;;;;;;;;5057937;28;20256;-71
2022/01/23 12:09:18;;;;;;;5.60;4.90;;;;;;;;;;5063572;28;20605;-72
2022/01/23 12:12:05;;;;;;;6.90;5.15;;;;;;;;;;5062049;28;20664;-72
2022/01/23 12:17:34;;;;;;;7.50;5.57;;;;;;;;;;5051916;28;20324;-71
2022/01/23 12:20:02;;;;;;;8.30;4.82;;;;;;;;;;5054151;28;20225;-73
2022/01/23 12:22:35;;;;;;;7.10;5.10;;;;;;;;;;5059566;28;20289;-72
2022/01/23 12:25:20;;;;;;;7.25;5.43;;;;;;;;;;5068356;28;20249;-73
2022/01/23 12:27:48;;;;;;;7.78;5.45;;;;;;;;;;5059793;28;20653;-73
2022/01/23 12:33:13;;;;;;;5.60;5.00;;;;;;;;;;5100983;27;20544;-72
2022/01/23 12:35:41;;;;;;;6.85;5.00;;;;;;;;;;5102950;28;20628;-74
2022/01/23 12:38:10;;;;;;;6.70;5.95;;;;;;;;;;5105708;28;20192;-71
2022/01/23 12:40:41;;;;;;;5.63;4.57;;;;;;;;;;5102039;28;20205;-71
2022/01/23 12:43:08;;;;;;;7.90;5.18;;;;;;;;;;5103001;28;20404;-72
2022/01/23 12:45:53;;;;;;;12.90;5.22;;;;;;;;;;5101719;28;20707;-73
2022/01/23 12:48:39;;;;;;;7.00;5.18;;;;;;;;;;5101957;28;20200;-72
2022/01/23 12:51:09;;;;;;;6.03;5.15;;;;;;;;;;5095182;28;20683;-72
2022/01/23 12:53:36;;;;;;;8.45;5.20;;;;;;;;;;5095150;28;20296;-72
2022/01/23 12:56:04;;;;;;;7.55;4.75;;;;;;;;;;5099337;28;20205;-72
2022/01/23 12:58:33;;;;;;;7.88;5.05;;;;;;;;;;5103301;28;20204;-73
2022/01/23 13:01:00;;;;;;;5.38;4.47;;;;;;;;;;5097849;28;20451;-72
2022/01/23 13:03:28;;;;;;;5.72;4.28;;;;;;;;;;5085140;28;20673;-72
2022/01/23 13:05:55;;;;;;;11.57;6.32;;;;;;;;;;5096160;28;20200;-73
2022/01/23 13:08:27;;;;;;;5.65;4.45;;;;;;;;;;5096010;28;20848;-72
2022/01/23 13:11:20;;;;;;;6.32;5.45;;;;;;;;;;5088775;28;20250;-73
2022/01/23 13:13:52;;;;;;;11.35;7.10;;;;;;;;;;5101571;28;20682;-73
2022/01/23 13:16:30;;;;;;;6.50;4.65;;;;;;;;;;5096963;28;20283;-73
2022/01/23 13:30:15;;;;;;;7.70;5.65;;;;;;;;;;5095095;28;20246;-73
2022/01/23 13:32:45;;;;;;;8.27;6.03;;;;;;;;;;5096394;28;20220;-72
2022/01/23 13:35:15;;;;;;;6.35;4.70;;;;;;;;;;5097560;28;20205;-72
2022/01/23 13:37:43;;;;;;;7.25;5.25;;;;;;;;;;5093262;28;20209;-73
2022/01/23 13:40:14;;;;;;;6.80;4.82;;;;;;;;;;5082073;28;20581;-72
2022/01/23 13:42:58;;;;;;;7.88;4.82;;;;;;;;;;5091554;28;20612;-72
2022/01/23 13:54:18;;;;;;;7.15;4.90;;;;;;;;;;5079081;28;20203;-72
2022/01/23 13:59:40;;;;;;;8.43;4.40;;;;;;;;;;5069433;28;20205;-73
2022/01/23 14:02:15;;;;;;;8.50;6.55;;;;;;;;;;5070106;28;20197;-74
2022/01/23 14:04:43;;;;;;;7.78;4.80;;;;;;;;;;5070065;28;20203;-73
2022/01/23 14:07:10;;;;;;;8.38;5.60;;;;;;;;;;5073397;28;20778;-73
2022/01/23 14:09:43;;;;;;;7.28;4.78;;;;;;;;;;5085507;28;20570;-73
2022/01/23 14:12:13;;;;;;;7.70;6.60;;;;;;;;;;5078557;28;20222;-72
2022/01/23 14:14:50;;;;;;;6.85;4.97;;;;;;;;;;5081557;28;20221;-72
2022/01/23 14:17:17;;;;;;;7.00;5.05;;;;;;;;;;5086891;28;20201;-72
2022/01/23 14:19:56;;;;;;;6.93;5.80;;;;;;;;;;5081069;28;20201;-72
2022/01/23 14:22:27;;;;;;;8.32;6.03;;;;;;;;;;5080398;28;20608;-72
2022/01/23 14:25:06;;;;;;;8.25;5.40;;;;;;;;;;5072691;28;20280;-72
2022/01/23 14:27:34;;;;;;;6.90;4.95;;;;;;;;;;5076074;28;20204;-72
2022/01/23 14:30:05;;;;;;;7.30;4.55;;;;;;;;;;5070843;28;20202;-72
2022/01/23 14:32:40;;;;;;;10.35;5.78;;;;;;;;;;5081450;28;20270;-72
2022/01/23 14:35:08;;;;;;;10.82;6.32;;;;;;;;;;5098710;28;20190;-74
2022/01/23 14:37:35;;;;;;;8.20;5.60;;;;;;;;;;5087456;28;20672;-72
2022/01/23 14:40:10;;;;;;;9.20;6.63;;;;;;;;;;5076045;28;20216;-72
2022/01/23 14:42:38;;;;;;;9.80;6.15;;;;;;;;;;5084185;28;20679;-72
2022/01/23 14:45:06;;;;;;;11.18;6.00;;;;;;;;;;5085941;28;20681;-73
2022/01/23 14:47:37;;;;;;;8.82;6.00;;;;;;;;;;5083138;28;20194;-73
2022/01/23 14:50:06;;;;;;;10.38;6.88;;;;;;;;;;5067950;28;20198;-73
2022/01/23 14:52:33;;;;;;;16.35;8.05;;;;;;;;;;5072792;28;20216;-72
2022/01/23 14:55:00;;;;;;;11.50;7.28;;;;;;;;;;5081422;28;20643;-73
2022/01/23 14:57:27;;;;;;;11.35;7.15;;;;;;;;;;5079963;28;20193;-72
2022/01/23 14:59:58;;;;;;;11.13;6.68;;;;;;;;;;5079737;28;20210;-74
2022/01/23 15:02:26;;;;;;;9.45;6.82;;;;;;;;;;5085216;28;20292;-72
2022/01/23 15:04:53;;;;;;;10.38;6.78;;;;;;;;;;5072156;28;20206;-72
2022/01/23 15:07:20;;;;;;;11.30;8.20;;;;;;;;;;5078229;28;20221;-71
2022/01/23 15:09:48;;;;;;;12.13;7.57;;;;;;;;;;5082763;28;20205;-72
2022/01/23 15:12:15;;;;;;;12.18;8.18;;;;;;;;;;5080264;28;20221;-73
2022/01/23 15:14:42;;;;;;;8.65;5.70;;;;;;;;;;5085701;28;20244;-74
2022/01/23 15:17:11;;;;;;;9.13;6.10;;;;;;;;;;5083268;28;20194;-74
2022/01/23 15:19:38;;;;;;;12.95;8.60;;;;;;;;;;5067412;28;20198;-73
2022/01/23 15:22:05;;;;;;;11.20;7.65;;;;;;;;;;5082147;28;20653;-72
2022/01/23 15:24:32;;;;;;;10.88;7.15;;;;;;;;;;5079241;28;20201;-72
2022/01/23 15:26:59;;;;;;;11.80;7.07;;;;;;;;;;5077060;28;20653;-72
2022/01/23 15:29:26;;;;;;;9.75;5.70;;;;;;;;;;5084203;28;20197;-73
2022/01/23 15:31:53;;;;;;;6.18;5.00;;;;;;;;;;5068198;28;20222;-71
2022/01/23 15:34:22;;;;;;;11.18;7.80;;;;;;;;;;5067392;28;20202;-74
2022/01/23 15:36:50;;;;;;;7.10;5.78;;;;;;;;;;5080139;28;20194;-73
2022/01/23 15:39:17;;;;;;;7.18;5.85;;;;;;;;;;5083584;28;20198;-75
2022/01/23 15:41:44;;;;;;;9.93;5.90;;;;;;;;;;5075021;28;20198;-76
2022/01/23 15:44:12;;;;;;;8.25;6.03;;;;;;;;;;5080835;28;20278;-73
2022/01/23 15:46:39;;;;;;;7.18;6.18;;;;;;;;;;5085250;28;20842;-74
2022/01/23 15:49:06;;;;;;;6.65;5.95;;;;;;;;;;5081836;28;20201;-72
2022/01/23 15:51:34;;;;;;;9.68;5.80;;;;;;;;;;5083171;28;20201;-73
2022/01/23 15:54:02;;;;;;;9.07;6.32;;;;;;;;;;5075805;28;20220;-72
2022/01/23 15:56:29;;;;;;;9.90;5.53;;;;;;;;;;5069142;28;20193;-73
2022/01/23 15:58:56;;;;;;;6.97;5.70;;;;;;;;;;5086757;28;20201;-71
2022/01/23 16:01:23;;;;;;;9.25;6.45;;;;;;;;;;5081062;28;20205;-73
2022/01/23 16:03:50;;;;;;;11.60;8.15;;;;;;;;;;5086007;28;20189;-72
2022/01/23 16:06:17;;;;;;;9.77;6.20;;;;;;;;;;5084866;28;20209;-73
2022/01/23 16:08:45;;;;;;;8.70;6.35;;;;;;;;;;5073785;28;20224;-73
2022/01/23 16:11:12;;;;;;;8.65;6.25;;;;;;;;;;5078199;28;20293;-72
2022/01/23 16:13:41;;;;;;;7.70;6.30;;;;;;;;;;5082437;28;20243;-71
2022/01/23 16:16:08;;;;;;;10.10;6.03;;;;;;;;;;5088430;28;20228;-72
2022/01/23 16:18:35;;;;;;;11.35;6.43;;;;;;;;;;5073510;28;20246;-72
2022/01/23 16:21:03;;;;;;;11.68;7.78;;;;;;;;;;5075285;28;20197;-73
2022/01/23 16:23:30;;;;;;;9.38;7.32;;;;;;;;;;5084832;28;20706;-72
2022/01/23 16:25:58;;;;;;;13.85;7.10;;;;;;;;;;5082270;28;20259;-72
2022/01/23 16:28:25;;;;;;;11.48;7.68;;;;;;;;;;5081167;28;20197;-76
2022/01/23 16:30:53;;;;;;;11.43;7.85;;;;;;;;;;5078000;28;20247;-73
2022/01/23 16:33:23;;;;;;;13.75;8.45;;;;;;;;;;5068387;28;20221;-72
2022/01/23 16:35:50;;;;;;;10.88;7.78;;;;;;;;;;5080511;28;20210;-73
2022/01/23 16:38:18;;;;;;;13.88;8.73;;;;;;;;;;5084083;28;20668;-74
2022/01/23 16:40:45;;;;;;;9.93;7.18;;;;;;;;;;5081720;28;20201;-73
2022/01/23 16:43:14;;;;;;;11.93;7.43;;;;;;;;;;5083067;28;20193;-72
2022/01/23 16:45:42;;;;;;;13.05;9.32;;;;;;;;;;5074770;28;20222;-74
2022/01/23 16:48:10;;;;;;;11.48;9.23;;;;;;;;;;5070311;28;20197;-71
2022/01/23 16:50:38;;;;;;;12.32;7.55;;;;;;;;;;5078625;28;20197;-74
2022/01/23 16:53:05;;;;;;;13.02;7.65;;;;;;;;;;5078159;28;20217;-72
2022/01/23 16:55:32;;;;;;;8.63;6.72;;;;;;;;;;5078052;28;20209;-73
2022/01/23 16:58:00;;;;;;;10.65;8.02;;;;;;;;;;5078526;28;20306;-72
2022/01/23 17:00:29;;;;;;;11.65;8.00;;;;;;;;;;5084563;28;20205;-72
2022/01/23 17:02:56;;;;;;;13.35;8.88;;;;;;;;;;5076373;28;20201;-73
2022/01/23 17:05:23;;;;;;;15.32;8.80;;;;;;;;;;5076977;28;20220;-74
2022/01/23 17:07:50;;;;;;;12.55;8.65;;;;;;;;;;5066864;28;20197;-72
2022/01/23 17:10:17;;;;;;;12.20;8.38;;;;;;;;;;5070424;28;20259;-74
2022/01/23 17:12:44;;;;;;;13.73;9.02;;;;;;;;;;5080948;28;20221;-73
2022/01/23 17:15:12;;;;;;;17.08;10.63;;;;;;;;;;5086835;28;20205;-74
2022/01/23 17:17:40;;;;;;;14.98;9.85;;;;;;;;;;5079886;28;20201;-73
2022/01/23 17:20:08;;;;;;;14.23;9.95;;;;;;;;;;5085592;28;20205;-72
2022/01/23 17:22:35;;;;;;;12.48;8.35;;;;;;;;;;5085824;28;20190;-72
2022/01/23 17:25:02;;;;;;;17.63;9.10;;;;;;;;;;5076695;28;20572;-72
2022/01/23 17:27:29;;;;;;;13.82;10.25;;;;;;;;;;5086112;28;20608;-73
2022/01/23 17:29:56;;;;;;;17.52;10.75;;;;;;;;;;5084793;28;20639;-72
2022/01/23 17:32:23;;;;;;;16.40;9.98;;;;;;;;;;5071375;28;20202;-72
2022/01/23 17:34:51;;;;;;;14.80;9.85;;;;;;;;;;5081092;28;20205;-75
2022/01/23 17:37:19;;;;;;;12.20;8.50;;;;;;;;;;5074662;28;20577;-72
2022/01/23 17:39:46;;;;;;;14.40;9.80;;;;;;;;;;5080150;28;20205;-73
2022/01/23 17:42:13;;;;;;;11.50;8.73;;;;;;;;;;5085785;28;20701;-72